createdAt,value
2022-12-03T00:00:11.925Z,10.32
2022-12-03T00:02:39.536Z,10.30
2022-12-03T00:05:06.512Z,10.50
2022-12-03T00:07:33.180Z,10.95
2022-12-03T00:09:59.786Z,11.75
2022-12-03T00:12:26.309Z,12.27
2022-12-03T00:14:52.976Z,11.18
2022-12-03T00:17:19.600Z,11.88
2022-12-03T00:19:46.263Z,11.93
2022-12-03T00:22:13.681Z,11.55
2022-12-03T00:24:40.230Z,12.13
2022-12-03T00:27:06.768Z,11.90
2022-12-03T00:29:33.339Z,11.38
2022-12-03T00:31:59.857Z,11.48
2022-12-03T00:34:26.418Z,12.35
2022-12-03T00:36:52.950Z,12.00
2022-12-03T00:39:19.498Z,12.63
2022-12-03T00:41:46.055Z,11.05
2022-12-03T00:44:12.554Z,12.27
2022-12-03T00:46:39.463Z,12.43
2022-12-03T00:49:06.022Z,11.45
2022-12-03T00:51:34.909Z,12.32
2022-12-03T00:54:01.719Z,13.70
2022-12-03T00:56:28.285Z,11.52
2022-12-03T00:58:54.808Z,13.43
2022-12-03T01:01:21.450Z,13.05
2022-12-03T01:03:48.002Z,13.40
2022-12-03T01:06:14.502Z,13.65
2022-12-03T01:08:40.966Z,12.68
2022-12-03T01:11:07.496Z,13.93
2022-12-03T01:13:34.015Z,12.25
2022-12-03T01:16:00.643Z,13.00
2022-12-03T01:18:27.219Z,13.38
2022-12-03T01:20:53.841Z,11.98
2022-12-03T01:23:20.381Z,13.25
2022-12-03T01:25:46.950Z,12.80
2022-12-03T01:28:13.461Z,12.80
2022-12-03T01:30:40.011Z,13.98
2022-12-03T01:33:06.491Z,13.93
2022-12-03T01:35:33.028Z,12.90
2022-12-03T01:37:59.525Z,13.18
2022-12-03T01:40:26.051Z,12.73
2022-12-03T01:42:52.548Z,13.05
2022-12-03T01:45:23.624Z,11.77
2022-12-03T01:47:50.169Z,10.05
2022-12-03T01:50:22.911Z,13.55
2022-12-03T01:52:49.573Z,12.35
2022-12-03T01:55:21.831Z,11.73
2022-12-03T01:57:54.624Z,12.25
2022-12-03T02:00:24.418Z,11.63
2022-12-03T02:03:00.304Z,12.20
2022-12-03T02:05:30.057Z,11.30
2022-12-03T02:07:57.900Z,12.57
2022-12-03T02:10:34.200Z,12.15
2022-12-03T02:13:09.067Z,12.10
2022-12-03T02:15:38.210Z,12.40
2022-12-03T02:18:04.978Z,12.90
2022-12-03T02:20:35.854Z,10.55
2022-12-03T02:23:02.299Z,9.40
2022-12-03T02:25:32.187Z,11.90
2022-12-03T02:28:00.503Z,11.85
2022-12-03T02:30:29.611Z,11.25
2022-12-03T02:32:57.502Z,11.40
2022-12-03T02:35:35.802Z,10.63
2022-12-03T02:38:19.861Z,10.68
2022-12-03T02:40:49.302Z,9.80
2022-12-03T02:43:17.179Z,8.45
2022-12-03T02:45:46.632Z,8.27
2022-12-03T02:48:19.896Z,8.07
2022-12-03T02:50:52.637Z,7.28
2022-12-03T02:53:22.069Z,6.22
2022-12-03T02:55:50.338Z,5.95
2022-12-03T02:58:17.940Z,5.72
2022-12-03T03:00:45.859Z,5.68
2022-12-03T03:03:13.121Z,5.10
2022-12-03T03:05:40.603Z,5.60
2022-12-03T03:08:08.826Z,5.82
2022-12-03T03:10:39.678Z,5.70
2022-12-03T03:13:10.688Z,5.97
2022-12-03T03:15:39.301Z,4.40
2022-12-03T03:18:11.010Z,4.75
2022-12-03T03:20:38.708Z,5.85
2022-12-03T03:23:19.971Z,5.18
2022-12-03T03:26:11.336Z,6.05
2022-12-03T03:28:44.860Z,7.32
2022-12-03T03:31:14.040Z,7.00
2022-12-03T03:33:43.612Z,6.47
2022-12-03T03:36:10.742Z,7.47
2022-12-03T03:38:38.107Z,7.13
2022-12-03T03:41:06.215Z,6.60
2022-12-03T03:43:34.690Z,6.85
2022-12-03T03:46:03.718Z,7.43
2022-12-03T03:48:30.694Z,7.45
2022-12-03T03:50:57.458Z,7.25
2022-12-03T03:53:24.507Z,8.00
2022-12-03T03:55:51.359Z,8.05
2022-12-03T03:58:17.946Z,7.43
2022-12-03T04:00:45.327Z,7.18
2022-12-03T04:03:12.624Z,7.65
2022-12-03T04:05:39.868Z,7.72
2022-12-03T04:08:06.448Z,7.78
2022-12-03T04:10:33.028Z,7.50
2022-12-03T04:13:00.104Z,7.22
2022-12-03T04:15:27.306Z,7.15
2022-12-03T04:17:54.031Z,6.82
2022-12-03T04:20:20.588Z,7.97
2022-12-03T04:22:47.122Z,7.93
2022-12-03T04:25:13.676Z,7.63
2022-12-03T04:27:40.174Z,6.80
2022-12-03T04:30:07.262Z,6.32
2022-12-03T04:32:33.733Z,7.47
2022-12-03T04:35:00.269Z,7.25
2022-12-03T04:37:26.755Z,7.50
2022-12-03T04:39:53.284Z,6.32
2022-12-03T04:42:19.825Z,6.55
2022-12-03T04:44:46.343Z,7.57
2022-12-03T04:47:16.182Z,5.88
2022-12-03T04:49:47.421Z,7.72
2022-12-03T04:52:16.525Z,7.18
2022-12-03T04:54:43.310Z,6.25
2022-12-03T04:57:10.885Z,6.03
2022-12-03T04:59:38.448Z,6.22
2022-12-03T05:02:06.556Z,6.72
2022-12-03T05:04:33.820Z,7.20
2022-12-03T05:07:00.349Z,5.32
2022-12-03T05:09:26.861Z,5.40
2022-12-03T05:11:53.492Z,6.22
2022-12-03T05:14:20.022Z,6.10
2022-12-03T05:16:46.617Z,6.07
2022-12-03T05:19:13.136Z,5.75
2022-12-03T05:21:39.701Z,6.10
2022-12-03T05:24:06.442Z,5.50
2022-12-03T05:26:33.077Z,6.40
2022-12-03T05:29:01.177Z,5.60
2022-12-03T05:31:27.868Z,5.45
2022-12-03T05:33:54.382Z,5.03
2022-12-03T05:36:20.912Z,4.95
2022-12-03T05:38:47.444Z,6.10
2022-12-03T05:41:13.968Z,5.85
2022-12-03T05:43:40.472Z,5.30
2022-12-03T05:46:07.044Z,6.35
2022-12-03T05:48:33.590Z,5.20
2022-12-03T05:51:00.131Z,5.30
2022-12-03T05:53:26.649Z,6.15
2022-12-03T05:55:53.171Z,4.90
2022-12-03T05:58:19.668Z,6.15
2022-12-03T06:00:46.151Z,4.90
2022-12-03T06:03:12.702Z,4.75
2022-12-03T06:05:39.286Z,4.82
2022-12-03T06:08:05.907Z,5.25
2022-12-03T06:10:32.531Z,5.72
2022-12-03T06:12:58.987Z,5.40
2022-12-03T06:15:25.532Z,4.70
2022-12-03T06:17:52.077Z,4.88
2022-12-03T06:20:20.341Z,4.65
2022-12-03T06:23:01.925Z,4.75
2022-12-03T06:25:28.424Z,5.30
2022-12-03T06:27:54.904Z,6.60
2022-12-03T06:30:21.483Z,5.28
2022-12-03T06:32:48.005Z,5.03
2022-12-03T06:35:14.668Z,5.07
2022-12-03T06:37:41.161Z,4.60
2022-12-03T06:40:08.369Z,5.30
2022-12-03T06:42:34.828Z,6.78
2022-12-03T06:45:01.364Z,4.95
2022-12-03T06:47:29.627Z,4.20
2022-12-03T06:49:56.172Z,4.38
2022-12-03T06:52:22.668Z,5.00
2022-12-03T06:54:49.360Z,5.15
2022-12-03T06:57:15.860Z,4.88
2022-12-03T06:59:42.415Z,5.28
2022-12-03T07:02:10.302Z,5.55
2022-12-03T07:04:36.845Z,5.38
2022-12-03T07:07:03.395Z,4.82
2022-12-03T07:09:29.939Z,4.45
2022-12-03T07:11:57.086Z,4.78
2022-12-03T07:14:23.707Z,4.20
2022-12-03T07:16:50.220Z,4.10
2022-12-03T07:19:16.794Z,4.97
2022-12-03T07:21:43.321Z,4.35
2022-12-03T07:24:10.140Z,4.68
2022-12-03T07:26:36.676Z,5.20
2022-12-03T07:29:03.412Z,4.00
2022-12-03T07:31:30.012Z,4.40
2022-12-03T07:33:56.573Z,4.45
2022-12-03T07:36:23.382Z,4.40
2022-12-03T07:38:49.919Z,4.40
2022-12-03T07:41:16.534Z,4.30
2022-12-03T07:43:43.114Z,4.45
2022-12-03T07:46:09.718Z,4.53
2022-12-03T07:48:36.355Z,4.80
2022-12-03T07:51:03.005Z,4.20
2022-12-03T07:53:29.521Z,3.72
2022-12-03T07:55:56.003Z,4.10
2022-12-03T07:58:22.541Z,3.80
2022-12-03T08:00:49.274Z,4.30
2022-12-03T08:03:15.878Z,3.75
2022-12-03T08:05:42.380Z,3.88
2022-12-03T08:08:09.049Z,3.85
2022-12-03T08:10:35.643Z,3.95
2022-12-03T08:13:06.617Z,4.50
2022-12-03T08:15:39.099Z,2.83
2022-12-03T08:18:32.731Z,3.58
2022-12-03T08:20:59.313Z,3.70
2022-12-03T08:23:26.473Z,5.00
2022-12-03T08:25:53.135Z,4.13
2022-12-03T08:28:27.026Z,4.13
2022-12-03T08:31:09.736Z,3.88
2022-12-03T08:33:37.246Z,3.65
2022-12-03T08:36:25.253Z,3.35
2022-12-03T08:38:55.779Z,3.00
2022-12-03T08:41:22.884Z,4.40
2022-12-03T08:43:49.571Z,3.55
2022-12-03T08:46:19.033Z,3.35
2022-12-03T08:48:49.117Z,3.28
2022-12-03T08:51:22.573Z,4.30
2022-12-03T08:54:01.816Z,4.53
2022-12-03T08:56:30.833Z,3.35
2022-12-03T08:59:16.775Z,3.08
2022-12-03T09:01:45.734Z,3.05
2022-12-03T09:04:27.666Z,3.13
2022-12-03T09:06:55.020Z,3.00
2022-12-03T09:09:22.358Z,3.70
2022-12-03T09:11:49.789Z,3.42
2022-12-03T09:14:18.732Z,3.05
2022-12-03T09:16:46.012Z,3.47
2022-12-03T09:19:12.791Z,3.63
2022-12-03T09:21:39.375Z,3.00
2022-12-03T09:24:06.495Z,3.28
2022-12-03T09:26:33.059Z,2.92
2022-12-03T09:28:59.660Z,3.55
2022-12-03T09:31:26.320Z,2.97
2022-12-03T09:33:52.909Z,3.13
2022-12-03T09:36:19.463Z,3.22
2022-12-03T09:38:48.065Z,3.42
2022-12-03T09:41:14.944Z,3.70
2022-12-03T09:46:29.808Z,3.70
2022-12-03T09:48:56.490Z,3.63
2022-12-03T09:51:32.578Z,3.75
2022-12-03T09:54:01.401Z,3.53
2022-12-03T09:56:27.971Z,3.75
2022-12-03T09:58:54.688Z,3.25
2022-12-03T10:01:21.876Z,3.92
2022-12-03T10:03:51.106Z,4.22
2022-12-03T10:06:23.464Z,3.70
2022-12-03T10:08:54.621Z,3.25
2022-12-03T10:11:24.393Z,3.00
2022-12-03T10:13:54.035Z,3.28
2022-12-03T10:16:21.529Z,2.95
2022-12-03T10:18:54.260Z,3.20
2022-12-03T10:21:30.513Z,3.13
2022-12-03T10:24:20.458Z,3.15
2022-12-03T10:26:48.817Z,2.65
2022-12-03T10:29:23.178Z,2.80
2022-12-03T10:32:00.183Z,2.80
2022-12-03T10:34:31.993Z,2.75
2022-12-03T10:37:25.081Z,2.15
2022-12-03T10:40:13.092Z,2.92
2022-12-03T10:42:41.066Z,2.35
2022-12-03T10:45:16.833Z,2.50
2022-12-03T10:48:01.612Z,2.80
2022-12-03T10:50:29.089Z,2.40
2022-12-03T10:52:55.896Z,3.42
2022-12-03T10:55:22.560Z,2.60
2022-12-03T10:57:49.166Z,2.63
2022-12-03T11:00:18.464Z,2.42
2022-12-03T11:02:50.417Z,2.72
2022-12-03T11:05:25.581Z,2.33
2022-12-03T11:07:52.551Z,2.45
2022-12-03T11:10:19.634Z,3.15
2022-12-03T11:13:24.181Z,2.63
2022-12-03T11:15:50.905Z,5.03
2022-12-03T11:18:36.054Z,3.75
2022-12-03T11:21:04.878Z,3.05
2022-12-03T11:23:47.035Z,3.00
2022-12-03T11:26:38.251Z,2.92
2022-12-03T11:29:13.791Z,3.38
2022-12-03T11:31:48.122Z,2.58
2022-12-03T11:34:20.943Z,3.33
2022-12-03T11:37:09.572Z,4.13
2022-12-03T11:39:45.652Z,3.67
2022-12-03T11:42:22.591Z,3.40
2022-12-03T11:45:04.478Z,3.53
2022-12-03T11:47:36.967Z,3.22
2022-12-03T11:50:21.373Z,3.63
2022-12-03T11:53:12.888Z,3.40
2022-12-03T11:55:42.811Z,3.75
2022-12-03T11:58:26.271Z,4.40
2022-12-03T12:01:00.976Z,4.35
2022-12-03T12:03:29.342Z,4.15
2022-12-03T12:06:12.690Z,4.97
2022-12-03T12:08:54.688Z,4.32
2022-12-03T12:11:30.412Z,4.57
2022-12-03T12:14:02.083Z,5.32
2022-12-03T12:19:42.530Z,5.10
2022-12-03T12:22:29.717Z,4.57
2022-12-03T12:24:57.415Z,4.18
2022-12-03T12:27:40.293Z,4.25
2022-12-03T12:30:14.862Z,4.30
2022-12-03T12:32:49.129Z,4.78
2022-12-03T12:35:23.145Z,4.75
2022-12-03T12:37:56.628Z,5.43
2022-12-03T12:40:31.614Z,4.70
2022-12-03T12:43:04.187Z,5.75
2022-12-03T12:45:36.875Z,4.82
2022-12-03T12:48:30.939Z,6.10
2022-12-03T12:51:14.823Z,5.35
2022-12-03T12:53:41.680Z,5.30
2022-12-03T12:56:37.792Z,5.47
2022-12-03T12:59:19.748Z,5.72
2022-12-03T13:01:48.248Z,5.20
2022-12-03T13:04:23.288Z,4.93
2022-12-03T13:06:52.812Z,4.68
2022-12-03T13:09:21.921Z,6.07
2022-12-03T13:11:53.533Z,6.70
2022-12-03T13:16:53.447Z,5.07
2022-12-03T13:19:24.530Z,5.20
2022-12-03T13:21:55.707Z,4.72
2022-12-03T13:24:45.743Z,6.78
2022-12-03T13:27:18.562Z,5.70
2022-12-03T13:29:53.266Z,6.15
2022-12-03T13:32:23.430Z,7.28
2022-12-03T13:34:50.013Z,5.63
2022-12-03T13:37:20.903Z,6.82
2022-12-03T13:39:50.096Z,7.82
2022-12-03T13:42:22.568Z,5.30
2022-12-03T13:44:49.925Z,5.28
2022-12-03T13:47:20.672Z,5.07
2022-12-03T13:49:52.392Z,6.23
2022-12-03T13:52:21.998Z,5.72
2022-12-03T13:54:51.336Z,6.50
2022-12-03T13:57:18.115Z,5.40
2022-12-03T13:59:44.844Z,5.32
2022-12-03T14:02:11.416Z,6.70
2022-12-03T14:04:38.488Z,5.50
2022-12-03T14:07:05.773Z,5.95
2022-12-03T14:09:32.484Z,5.78
2022-12-03T14:11:59.027Z,5.63
2022-12-03T14:14:25.554Z,7.22
2022-12-03T14:16:59.526Z,5.38
2022-12-03T14:19:26.922Z,5.57
2022-12-03T14:21:53.603Z,5.65
2022-12-03T14:24:20.280Z,6.43
2022-12-03T14:26:46.851Z,6.97
2022-12-03T14:29:13.441Z,6.18
2022-12-03T14:31:49.775Z,6.38
2022-12-03T14:34:17.646Z,5.53
2022-12-03T14:36:44.431Z,6.00
2022-12-03T14:39:11.072Z,6.13
2022-12-03T14:41:37.656Z,5.68
2022-12-03T14:44:04.386Z,23.40
2022-12-03T14:46:32.885Z,10.43
2022-12-03T14:48:59.481Z,6.07
2022-12-03T14:51:26.189Z,7.20
2022-12-03T14:53:52.816Z,6.20
2022-12-03T14:56:19.701Z,6.05
2022-12-03T14:58:46.223Z,5.90
2022-12-03T15:01:12.778Z,5.93
2022-12-03T15:03:39.499Z,6.45
2022-12-03T15:06:06.372Z,6.18
2022-12-03T15:08:33.010Z,6.80
2022-12-03T15:10:59.643Z,5.85
2022-12-03T15:13:26.229Z,6.93
2022-12-03T15:15:52.748Z,6.30
2022-12-03T15:18:19.405Z,7.10
2022-12-03T15:20:46.147Z,6.57
2022-12-03T15:23:14.443Z,6.55
2022-12-03T15:25:41.353Z,7.82
2022-12-03T15:28:07.920Z,6.95
2022-12-03T15:30:34.463Z,6.93
2022-12-03T15:33:01.983Z,6.22
2022-12-03T15:35:31.676Z,6.47
2022-12-03T15:37:59.121Z,6.55
2022-12-03T15:40:26.391Z,7.40
2022-12-03T15:42:52.955Z,6.32
2022-12-03T15:45:19.641Z,6.88
2022-12-03T15:47:46.234Z,7.20
2022-12-03T15:50:13.061Z,8.18
2022-12-03T15:52:40.106Z,8.45
2022-12-03T15:55:07.054Z,8.68
2022-12-03T15:57:33.606Z,9.65
2022-12-03T16:00:02.615Z,8.55
2022-12-03T16:02:39.041Z,9.35
2022-12-03T16:05:08.541Z,7.93
2022-12-03T16:07:35.383Z,8.07
2022-12-03T16:10:02.174Z,8.10
2022-12-03T16:12:28.922Z,7.28
2022-12-03T16:14:55.492Z,7.07
2022-12-03T16:17:22.107Z,8.00
2022-12-03T16:19:48.708Z,8.10
2022-12-03T16:22:15.837Z,7.68
2022-12-03T16:24:42.473Z,8.27
2022-12-03T16:27:09.280Z,8.05
2022-12-03T16:29:35.817Z,8.20
2022-12-03T16:32:02.511Z,7.82
2022-12-03T16:34:29.091Z,8.65
2022-12-03T16:36:55.920Z,8.75
2022-12-03T16:39:22.623Z,8.55
2022-12-03T16:41:49.152Z,7.95
2022-12-03T16:44:15.937Z,9.88
2022-12-03T16:46:42.587Z,9.82
2022-12-03T16:49:09.428Z,9.10
2022-12-03T16:51:35.940Z,9.57
2022-12-03T16:54:02.589Z,9.38
2022-12-03T16:56:29.163Z,10.00
2022-12-03T16:58:56.747Z,9.68
2022-12-03T17:01:23.542Z,9.10
2022-12-03T17:03:50.593Z,9.30
2022-12-03T17:06:17.186Z,9.32
2022-12-03T17:08:49.100Z,9.95
2022-12-03T17:11:16.686Z,10.68
2022-12-03T17:13:43.212Z,10.20
2022-12-03T17:16:09.962Z,10.05
2022-12-03T17:18:36.658Z,9.15
2022-12-03T17:21:03.432Z,8.50
2022-12-03T17:23:29.983Z,11.35
2022-12-03T17:25:56.637Z,12.07
2022-12-03T17:28:23.322Z,13.32
2022-12-03T17:30:50.151Z,10.90
2022-12-03T17:33:16.853Z,10.35
2022-12-03T17:35:43.462Z,8.85
2022-12-03T17:38:10.135Z,9.02
2022-12-03T17:40:36.758Z,8.43
2022-12-03T17:43:03.311Z,8.57
2022-12-03T17:45:29.852Z,7.43
2022-12-03T17:47:56.497Z,8.00
2022-12-03T17:50:24.644Z,8.93
2022-12-03T17:52:51.433Z,8.07
2022-12-03T17:55:27.711Z,7.28
2022-12-03T17:57:57.946Z,7.03
2022-12-03T18:00:24.692Z,6.80
2022-12-03T18:02:51.839Z,6.80
2022-12-03T18:05:18.725Z,7.25
2022-12-03T18:07:45.378Z,6.78
2022-12-03T18:10:11.973Z,7.30
2022-12-03T18:12:38.668Z,6.47
2022-12-03T18:15:05.597Z,7.18
2022-12-03T18:17:32.186Z,7.40
2022-12-03T18:19:58.842Z,7.68
2022-12-03T18:22:25.765Z,7.57
2022-12-03T18:24:52.356Z,8.10
2022-12-03T18:27:21.092Z,7.55
2022-12-03T18:29:47.980Z,8.60
2022-12-03T18:32:28.252Z,8.05
2022-12-03T18:34:55.570Z,8.75
2022-12-03T18:37:26.025Z,8.93
2022-12-03T18:39:53.354Z,8.05
2022-12-03T18:42:23.336Z,7.40
2022-12-03T18:44:53.711Z,9.38
2022-12-03T18:47:22.604Z,7.57
2022-12-03T18:49:49.601Z,9.35
2022-12-03T18:52:19.225Z,8.02
2022-12-03T18:54:46.111Z,8.52
2022-12-03T18:57:12.794Z,7.60
2022-12-03T18:59:39.935Z,7.80
2022-12-03T19:02:07.896Z,8.98
2022-12-03T19:04:34.538Z,10.65
2022-12-03T19:07:02.209Z,11.00
2022-12-03T19:09:28.792Z,13.07
2022-12-03T19:11:55.617Z,9.35
2022-12-03T19:14:22.214Z,9.93
2022-12-03T19:16:48.770Z,14.88
2022-12-03T19:19:15.594Z,22.83
2022-12-03T19:21:42.312Z,26.08
2022-12-03T19:24:25.431Z,22.20
2022-12-03T19:26:52.293Z,21.75
2022-12-03T19:29:18.867Z,19.13
2022-12-03T19:31:45.664Z,19.15
2022-12-03T19:34:12.244Z,18.52
2022-12-03T19:36:38.797Z,13.05
2022-12-03T19:39:05.365Z,10.57
2022-12-03T19:41:31.920Z,9.18
2022-12-03T19:43:59.092Z,8.07
2022-12-03T19:46:27.706Z,8.85
2022-12-03T19:48:54.677Z,8.25
2022-12-03T19:51:34.171Z,8.98
2022-12-03T19:54:02.218Z,7.93
2022-12-03T19:56:28.918Z,8.27
2022-12-03T19:58:56.221Z,8.88
2022-12-03T20:01:25.819Z,8.27
2022-12-03T20:03:55.494Z,9.15
2022-12-03T20:06:24.439Z,8.32
2022-12-03T20:08:55.787Z,9.43
2022-12-03T20:11:25.314Z,9.98
2022-12-03T20:13:56.976Z,9.75
2022-12-03T20:16:24.913Z,10.30
2022-12-03T20:18:55.939Z,10.48
2022-12-03T20:21:23.817Z,11.15
2022-12-03T20:23:50.632Z,10.95
2022-12-03T20:26:19.696Z,9.15
2022-12-03T20:28:47.599Z,10.07
2022-12-03T20:31:19.250Z,9.88
2022-12-03T20:36:16.550Z,9.73
2022-12-03T20:38:43.624Z,10.05
2022-12-03T20:41:12.458Z,10.32
2022-12-03T20:43:39.185Z,9.88
2022-12-03T20:46:09.622Z,9.73
2022-12-03T20:48:37.102Z,13.32
2022-12-03T20:51:06.113Z,11.05
2022-12-03T20:53:33.460Z,9.40
2022-12-03T20:56:01.482Z,10.15
2022-12-03T20:58:29.047Z,10.88
2022-12-03T21:00:56.217Z,10.13
2022-12-03T21:03:22.968Z,9.38
2022-12-03T21:05:49.781Z,8.18
2022-12-03T21:08:27.943Z,9.05
2022-12-03T21:11:07.902Z,8.27
2022-12-03T21:13:34.684Z,7.78
2022-12-03T21:16:07.556Z,7.88
2022-12-03T21:18:35.321Z,8.27
2022-12-03T21:21:03.176Z,8.18
2022-12-03T21:23:31.100Z,7.50
2022-12-03T21:26:05.125Z,7.10
2022-12-03T21:28:33.016Z,7.20
2022-12-03T21:31:01.888Z,6.68
2022-12-03T21:33:29.527Z,7.13
2022-12-03T21:35:56.456Z,7.28
2022-12-03T21:38:23.817Z,7.30
2022-12-03T21:40:50.425Z,6.80
2022-12-03T21:43:17.038Z,7.25
2022-12-03T21:45:44.198Z,6.97
2022-12-03T21:48:11.259Z,7.55
2022-12-03T21:50:37.840Z,6.40
2022-12-03T21:53:04.476Z,7.40
2022-12-03T21:55:31.365Z,7.72
2022-12-03T21:57:57.948Z,6.72
2022-12-03T22:00:24.649Z,6.10
2022-12-03T22:02:51.451Z,6.40
2022-12-03T22:05:18.131Z,6.80
2022-12-03T22:07:44.821Z,6.47
2022-12-03T22:10:12.477Z,6.25
2022-12-03T22:12:39.265Z,6.63
2022-12-03T22:15:06.548Z,6.90
2022-12-03T22:17:35.952Z,6.63
2022-12-03T22:20:04.024Z,6.70
2022-12-03T22:22:30.659Z,6.45
2022-12-03T22:24:57.677Z,6.22
2022-12-03T22:27:24.871Z,6.22
2022-12-03T22:29:51.666Z,7.32
2022-12-03T22:32:18.272Z,6.43
2022-12-03T22:34:44.789Z,6.28
2022-12-03T22:37:11.445Z,7.68
2022-12-03T22:39:38.002Z,7.32
2022-12-03T22:42:04.782Z,7.78
2022-12-03T22:44:31.381Z,8.23
2022-12-03T22:46:58.053Z,7.93
2022-12-03T22:49:25.851Z,7.00
2022-12-03T22:51:52.376Z,8.40
2022-12-03T22:54:23.719Z,8.32
2022-12-03T22:56:50.753Z,7.85
2022-12-03T22:59:17.367Z,8.35
2022-12-03T23:01:43.959Z,6.53
2022-12-03T23:04:11.347Z,6.05
2022-12-03T23:06:38.552Z,7.78
2022-12-03T23:09:06.607Z,7.30
2022-12-03T23:11:33.769Z,5.80
2022-12-03T23:14:00.336Z,5.35
2022-12-03T23:16:30.156Z,4.93
2022-12-03T23:19:01.352Z,4.70
2022-12-03T23:21:31.123Z,4.18
2022-12-03T23:24:02.742Z,5.15
2022-12-03T23:28:56.588Z,5.35
2022-12-03T23:31:26.436Z,5.72
2022-12-03T23:33:53.985Z,6.05
2022-12-03T23:36:21.392Z,5.57
2022-12-03T23:38:48.179Z,5.07
2022-12-03T23:41:17.950Z,5.85
2022-12-03T23:43:44.674Z,5.10
2022-12-03T23:46:14.351Z,6.13
2022-12-03T23:48:42.011Z,5.63
2022-12-03T23:51:11.006Z,5.45
2022-12-03T23:53:38.627Z,5.95
2022-12-03T23:56:11.853Z,5.78
2022-12-03T23:58:38.853Z,5.78
